createdAt,value
2022-08-13T00:00:24.716Z,100992.78
2022-08-13T00:02:53.485Z,100989.47
2022-08-13T00:05:42.351Z,100986.94
2022-08-13T00:08:15.830Z,100987.94
2022-08-13T00:10:51.338Z,100995.13
2022-08-13T00:13:24.764Z,100991.56
2022-08-13T00:16:13.099Z,100986.19
2022-08-13T00:18:47.022Z,100991.34
2022-08-13T00:21:18.115Z,100986.72
2022-08-13T00:24:00.707Z,100988.59
2022-08-13T00:26:40.234Z,100994.78
2022-08-13T00:29:14.875Z,100989.75
2022-08-13T00:31:45.861Z,100987.25
2022-08-13T00:34:19.993Z,100984.00
2022-08-13T00:37:06.216Z,100978.63
2022-08-13T00:40:18.714Z,100981.88
2022-08-13T00:42:34.461Z,100984.63
2022-08-13T00:45:16.346Z,100981.31
2022-08-13T00:48:07.997Z,100977.16
2022-08-13T00:50:38.002Z,100987.81
2022-08-13T00:53:21.448Z,100989.00
2022-08-13T00:55:56.699Z,100988.44
2022-08-13T00:58:29.463Z,100977.34
2022-08-13T01:01:04.097Z,100980.81
2022-08-13T01:04:10.378Z,100974.78
2022-08-13T01:06:38.359Z,100984.88
2022-08-13T01:10:17.709Z,100976.34
2022-08-13T01:12:03.882Z,100981.16
2022-08-13T01:14:39.158Z,100970.69
2022-08-13T01:17:14.722Z,100966.44
2022-08-13T01:19:52.598Z,100964.69
2022-08-13T01:22:33.663Z,100970.34
2022-08-13T01:25:14.618Z,100970.88
2022-08-13T01:27:43.958Z,100973.13
2022-08-13T01:30:17.528Z,100968.09
2022-08-13T01:32:55.538Z,100962.28
2022-08-13T01:35:28.606Z,100962.69
2022-08-13T01:38:04.211Z,100964.84
2022-08-13T01:40:34.779Z,100964.84
2022-08-13T01:43:21.537Z,100965.97
2022-08-13T01:45:54.222Z,100959.94
2022-08-13T01:48:59.071Z,100955.63
2022-08-13T01:51:40.146Z,100961.88
2022-08-13T01:54:38.909Z,100958.22
2022-08-13T01:57:09.287Z,100968.84
2022-08-13T02:00:03.009Z,100964.78
2022-08-13T02:02:43.016Z,100966.59
2022-08-13T02:05:25.041Z,100971.66
2022-08-13T02:08:08.106Z,100962.88
2022-08-13T02:10:45.851Z,100959.41
2022-08-13T02:13:17.399Z,100954.53
2022-08-13T02:15:53.284Z,100953.84
2022-08-13T02:18:26.328Z,100960.16
2022-08-13T02:21:00.514Z,100960.69
2022-08-13T02:23:59.556Z,100952.78
2022-08-13T02:26:26.845Z,100949.59
2022-08-13T02:29:04.898Z,100947.97
2022-08-13T02:32:05.696Z,100950.06
2022-08-13T02:34:27.922Z,100953.81
2022-08-13T02:37:23.767Z,100945.81
2022-08-13T02:39:59.624Z,100948.59
2022-08-13T02:42:36.831Z,100957.84
2022-08-13T02:45:17.348Z,100964.41
2022-08-13T02:47:49.587Z,100961.78
2022-08-13T02:52:58.795Z,100958.44
2022-08-13T02:55:33.970Z,100961.13
2022-08-13T02:58:08.503Z,100956.81
2022-08-13T03:00:49.014Z,100955.34
2022-08-13T03:03:20.213Z,100952.94
2022-08-13T03:06:00.043Z,100958.50
2022-08-13T03:08:36.755Z,100957.84
2022-08-13T03:11:13.793Z,100962.56
2022-08-13T03:13:54.731Z,100963.88
2022-08-13T03:16:34.788Z,100965.78
2022-08-13T03:19:04.510Z,100960.31
2022-08-13T03:21:51.808Z,100955.91
2022-08-13T03:24:30.107Z,100960.59
2022-08-13T03:27:09.965Z,100957.97
2022-08-13T03:30:03.737Z,100950.75
2022-08-13T03:32:31.477Z,100942.88
2022-08-13T03:35:10.845Z,100943.91
2022-08-13T03:37:51.978Z,100941.38
2022-08-13T03:40:25.266Z,100937.88
2022-08-13T03:43:15.729Z,100938.19
2022-08-13T03:45:49.176Z,100937.59
2022-08-13T03:48:32.797Z,100943.53
2022-08-13T03:51:02.911Z,100937.19
2022-08-13T03:53:43.310Z,100940.72
2022-08-13T03:56:16.691Z,100942.53
2022-08-13T03:58:47.174Z,100948.56
2022-08-13T04:01:25.424Z,100942.28
2022-08-13T04:03:59.471Z,100934.28
2022-08-13T04:06:32.326Z,100930.56
2022-08-13T04:09:07.139Z,100928.91
2022-08-13T04:11:44.452Z,100933.94
2022-08-13T04:14:36.217Z,100941.97
2022-08-13T04:17:14.300Z,100939.72
2022-08-13T04:19:49.952Z,100940.09
2022-08-13T04:22:44.698Z,100932.78
2022-08-13T04:25:40.090Z,100933.38
2022-08-13T04:28:12.694Z,100930.59
2022-08-13T04:30:44.677Z,100929.22
2022-08-13T04:33:23.299Z,100930.63
2022-08-13T04:36:12.368Z,100931.44
2022-08-13T04:38:46.562Z,100934.13
2022-08-13T04:41:16.774Z,100939.34
2022-08-13T04:44:00.695Z,100933.78
2022-08-13T04:46:37.587Z,100932.34
2022-08-13T04:49:20.257Z,100924.72
2022-08-13T04:52:07.712Z,100924.28
2022-08-13T04:54:38.377Z,100916.84
2022-08-13T04:57:08.701Z,100923.50
2022-08-13T04:59:43.234Z,100921.91
2022-08-13T05:02:13.116Z,100925.75
2022-08-13T05:04:52.247Z,100923.28
2022-08-13T05:07:21.989Z,100916.06
2022-08-13T05:09:54.029Z,100923.19
2022-08-13T05:12:42.349Z,100917.06
2022-08-13T05:15:26.445Z,100912.97
2022-08-13T05:18:21.979Z,100917.31
2022-08-13T05:21:06.385Z,100920.00
2022-08-13T05:26:09.322Z,100916.44
2022-08-13T05:26:33.430Z,100913.53
2022-08-13T05:31:56.527Z,100916.28
2022-08-13T05:34:32.615Z,100919.00
2022-08-13T05:38:13.215Z,100911.13
2022-08-13T05:40:07.059Z,100904.38
2022-08-13T05:42:40.718Z,100904.63
2022-08-13T05:45:20.750Z,100914.88
2022-08-13T05:47:51.729Z,100908.94
2022-08-13T05:50:21.431Z,100910.09
2022-08-13T05:53:04.501Z,100919.72
2022-08-13T05:56:06.947Z,100916.84
2022-08-13T05:58:28.980Z,100916.72
2022-08-13T06:01:16.588Z,100910.72
2022-08-13T06:04:25.745Z,100923.31
2022-08-13T06:06:46.802Z,100918.72
2022-08-13T06:09:23.722Z,100926.22
2022-08-13T06:12:30.380Z,100928.38
2022-08-13T06:15:08.407Z,100925.78
2022-08-13T06:17:45.457Z,100925.50
2022-08-13T06:20:24.993Z,100924.94
2022-08-13T06:23:16.251Z,100917.94
2022-08-13T06:26:17.834Z,100921.22
2022-08-13T06:28:56.045Z,100924.03
2022-08-13T06:31:51.624Z,100931.78
2022-08-13T06:34:34.629Z,100923.78
2022-08-13T06:37:11.316Z,100921.22
2022-08-13T06:40:01.719Z,100926.97
2022-08-13T06:42:57.411Z,100923.06
2022-08-13T06:45:33.595Z,100929.06
2022-08-13T06:48:34.331Z,100929.72
2022-08-13T06:51:08.480Z,100928.97
2022-08-13T06:54:20.170Z,100930.31
2022-08-13T06:56:59.191Z,100925.00
2022-08-13T07:00:04.447Z,100924.91
2022-08-13T07:02:34.102Z,100925.72
2022-08-13T07:05:08.645Z,100924.38
2022-08-13T07:07:46.461Z,100923.78
2022-08-13T07:10:18.740Z,100926.78
2022-08-13T07:13:28.329Z,100921.97
2022-08-13T07:16:12.407Z,100930.78
2022-08-13T07:18:57.932Z,100938.69
2022-08-13T07:21:42.363Z,100933.00
2022-08-13T07:24:36.621Z,100921.53
2022-08-13T07:27:17.002Z,100933.84
2022-08-13T07:29:57.832Z,100924.56
2022-08-13T07:32:40.947Z,100934.91
2022-08-13T07:35:21.542Z,100933.84
2022-08-13T07:37:54.468Z,100923.06
2022-08-13T07:40:24.417Z,100926.53
2022-08-13T07:43:09.941Z,100929.00
2022-08-13T07:46:24.892Z,100936.78
2022-08-13T07:48:53.710Z,100937.75
2022-08-13T07:51:25.393Z,100940.91
2022-08-13T07:54:11.884Z,100944.44
2022-08-13T07:56:50.424Z,100945.06
2022-08-13T08:00:03.166Z,100949.88
2022-08-13T08:02:23.253Z,100942.94
2022-08-13T08:05:09.125Z,100947.84
2022-08-13T08:08:07.209Z,100941.22
2022-08-13T08:11:02.207Z,100946.47
2022-08-13T08:13:45.521Z,100947.78
2022-08-13T08:16:44.780Z,100949.94
2022-08-13T08:20:07.324Z,100943.69
2022-08-13T08:22:35.700Z,100943.00
2022-08-13T08:25:21.553Z,100939.69
2022-08-13T08:40:56.343Z,100939.16
2022-08-13T08:43:23.459Z,100947.25
2022-08-13T08:46:10.683Z,100940.16
2022-08-13T08:48:48.158Z,100939.59
2022-08-13T08:51:35.953Z,100937.66
2022-08-13T08:54:30.110Z,100943.00
2022-08-13T08:56:58.619Z,100934.28
2022-08-13T09:02:34.425Z,100938.00
2022-08-13T09:07:52.832Z,100948.25
2022-08-13T09:10:28.744Z,100948.91
2022-08-13T09:13:05.666Z,100957.72
2022-08-13T09:15:46.699Z,100954.53
2022-08-13T09:18:19.785Z,100949.47
2022-08-13T09:20:54.996Z,100952.94
2022-08-13T09:23:45.551Z,100962.47
2022-08-13T09:26:14.356Z,100960.00
2022-08-13T09:28:59.224Z,100959.81
2022-08-13T09:31:28.141Z,100965.28
2022-08-13T09:34:17.868Z,100976.38
2022-08-13T09:36:47.660Z,100976.88
2022-08-13T09:39:31.667Z,100977.44
2022-08-13T09:42:22.518Z,100984.19
2022-08-13T09:44:58.180Z,100993.66
2022-08-13T09:48:35.070Z,100981.41
2022-08-13T09:50:16.785Z,100983.00
2022-08-13T09:52:46.934Z,100972.09
2022-08-13T09:55:19.845Z,100970.44
2022-08-13T09:58:06.317Z,100960.16
2022-08-13T10:00:49.075Z,100953.47
2022-08-13T10:03:19.350Z,100956.09
2022-08-13T10:05:53.524Z,100952.56
2022-08-13T10:08:22.759Z,100957.88
2022-08-13T10:11:07.117Z,100946.16
2022-08-13T10:13:51.415Z,100949.00
2022-08-13T10:16:21.867Z,100938.69
2022-08-13T10:18:52.485Z,100926.91
2022-08-13T10:21:21.539Z,100922.28
2022-08-13T10:23:50.692Z,100917.41
2022-08-13T10:26:20.490Z,100909.84
2022-08-13T10:28:49.685Z,100906.41
2022-08-13T10:31:50.142Z,100899.84
2022-08-13T10:34:09.935Z,100899.19
2022-08-13T10:36:44.057Z,100895.47
2022-08-13T10:39:13.343Z,100914.63
2022-08-13T10:41:44.582Z,100906.25
2022-08-13T10:44:31.646Z,100915.69
2022-08-13T10:47:02.503Z,100902.41
2022-08-13T10:49:45.787Z,100911.28
2022-08-13T10:52:15.189Z,100907.75
2022-08-13T10:54:44.889Z,100900.91
2022-08-13T10:57:15.887Z,100893.72
2022-08-13T10:59:52.164Z,100900.75
2022-08-13T11:02:25.109Z,100902.34
2022-08-13T11:04:54.506Z,100893.72
2022-08-13T11:07:25.071Z,100893.38
2022-08-13T11:09:54.605Z,100903.09
2022-08-13T11:12:26.729Z,100900.88
2022-08-13T11:14:56.625Z,100896.75
2022-08-13T11:17:35.281Z,100883.38
2022-08-13T11:20:30.451Z,100888.72
2022-08-13T11:23:02.485Z,100877.94
2022-08-13T11:25:55.731Z,100882.78
2022-08-13T11:28:20.293Z,100889.13
2022-08-13T11:30:51.063Z,100886.63
2022-08-13T11:33:41.533Z,100887.94
2022-08-13T11:36:16.666Z,100893.75
2022-08-13T11:38:46.348Z,100892.88
2022-08-13T11:41:19.148Z,100888.69
2022-08-13T11:43:52.516Z,100883.66
2022-08-13T11:46:27.902Z,100879.59
2022-08-13T11:49:21.363Z,100876.84
2022-08-13T11:52:03.080Z,100889.47
2022-08-13T11:55:11.066Z,100878.03
2022-08-13T11:57:48.993Z,100882.66
2022-08-13T12:00:31.781Z,100876.25
2022-08-13T12:03:04.779Z,100883.72
2022-08-13T12:05:58.749Z,100871.69
2022-08-13T12:09:15.858Z,100867.06
2022-08-13T12:12:07.986Z,100857.91
2022-08-13T12:14:31.928Z,100859.78
2022-08-13T12:17:02.101Z,100862.72
2022-08-13T12:19:32.849Z,100852.63
2022-08-13T12:22:03.224Z,100847.53
2022-08-13T12:24:33.898Z,100849.91
2022-08-13T12:27:04.991Z,100846.47
2022-08-13T12:29:46.633Z,100849.22
2022-08-13T12:32:18.401Z,100848.38
2022-08-13T12:34:53.325Z,100832.84
2022-08-13T12:37:25.148Z,100828.13
2022-08-13T12:39:55.721Z,100825.09
2022-08-13T12:42:57.080Z,100831.03
2022-08-13T12:45:55.778Z,100826.75
2022-08-13T12:48:23.287Z,100828.50
2022-08-13T12:50:56.938Z,100820.19
2022-08-13T12:53:53.587Z,100816.06
2022-08-13T12:56:25.937Z,100817.09
2022-08-13T12:59:06.184Z,100809.63
2022-08-13T13:01:37.380Z,100814.56
2022-08-13T13:04:06.754Z,100823.25
2022-08-13T13:06:38.423Z,100810.78
2022-08-13T13:09:27.265Z,100807.22
2022-08-13T13:12:03.625Z,100795.97
2022-08-13T13:14:37.951Z,100799.47
2022-08-13T13:18:09.083Z,100793.28
2022-08-13T13:20:06.979Z,100797.63
2022-08-13T13:22:38.870Z,100799.28
2022-08-13T13:25:10.349Z,100782.97
2022-08-13T13:27:45.494Z,100795.28
2022-08-13T13:30:16.798Z,100787.88
2022-08-13T13:32:48.969Z,100796.94
2022-08-13T13:36:02.259Z,100784.69
2022-08-13T13:38:12.539Z,100795.53
2022-08-13T13:40:46.160Z,100796.47
2022-08-13T13:43:21.609Z,100782.91
2022-08-13T13:46:01.599Z,100775.41
2022-08-13T13:48:42.090Z,100782.47
2022-08-13T13:51:13.050Z,100784.91
2022-08-13T13:54:09.124Z,100783.91
2022-08-13T13:56:35.156Z,100778.78
2022-08-13T13:59:04.941Z,100782.81
2022-08-13T14:01:49.677Z,100778.22
2022-08-13T14:04:19.838Z,100762.53
2022-08-13T14:06:49.020Z,100766.72
2022-08-13T14:09:24.461Z,100760.84
2022-08-13T14:12:06.637Z,100763.69
2022-08-13T14:14:36.459Z,100760.53
2022-08-13T14:17:16.106Z,100754.22
2022-08-13T14:19:54.295Z,100759.88
2022-08-13T14:22:27.416Z,100751.00
2022-08-13T14:25:03.527Z,100756.00
2022-08-13T14:27:51.559Z,100761.59
2022-08-13T14:30:22.218Z,100754.84
2022-08-13T14:33:05.679Z,100753.44
2022-08-13T14:35:42.006Z,100756.16
2022-08-13T14:38:18.795Z,100758.81
2022-08-13T14:40:48.688Z,100763.13
2022-08-13T14:44:02.045Z,100754.69
2022-08-13T14:46:28.207Z,100761.28
2022-08-13T14:49:04.786Z,100759.59
2022-08-13T14:52:03.769Z,100756.19
2022-08-13T14:54:28.573Z,100757.53
2022-08-13T14:57:24.886Z,100755.16
2022-08-13T14:59:58.801Z,100745.94
2022-08-13T15:02:33.603Z,100735.97
2022-08-13T15:05:04.270Z,100741.91
2022-08-13T15:07:36.422Z,100744.66
2022-08-13T15:10:07.609Z,100741.72
2022-08-13T15:12:37.495Z,100734.00
2022-08-13T15:15:09.246Z,100732.88
2022-08-13T15:17:45.098Z,100739.69
2022-08-13T15:20:16.195Z,100738.66
2022-08-13T15:22:45.665Z,100733.88
2022-08-13T15:25:18.840Z,100735.47
2022-08-13T15:27:52.386Z,100726.00
2022-08-13T15:30:29.735Z,100734.84
2022-08-13T15:33:01.343Z,100727.03
2022-08-13T15:35:48.345Z,100729.84
2022-08-13T15:38:20.999Z,100721.19
2022-08-13T15:40:55.802Z,100726.28
2022-08-13T15:43:37.088Z,100726.16
2022-08-13T15:46:17.190Z,100723.44
2022-08-13T15:48:50.897Z,100715.09
2022-08-13T15:51:28.816Z,100708.13
2022-08-13T15:54:01.839Z,100704.38
2022-08-13T15:56:35.395Z,100700.56
2022-08-13T15:59:17.244Z,100707.19
2022-08-13T16:01:49.953Z,100706.94
2022-08-13T16:04:30.858Z,100699.31
2022-08-13T16:07:14.590Z,100693.84
2022-08-13T16:09:54.822Z,100687.66
2022-08-13T16:12:33.622Z,100689.13
2022-08-13T16:15:13.311Z,100685.31
2022-08-13T16:17:54.658Z,100674.41
2022-08-13T16:20:31.735Z,100666.97
2022-08-13T16:23:15.858Z,100668.69
2022-08-13T16:25:55.039Z,100667.78
2022-08-13T16:28:34.193Z,100663.81
2022-08-13T16:31:21.824Z,100662.53
2022-08-13T16:34:15.188Z,100662.41
2022-08-13T16:36:56.554Z,100663.84
2022-08-13T16:39:31.691Z,100658.38
2022-08-13T16:42:04.114Z,100663.94
2022-08-13T16:44:43.646Z,100653.66
2022-08-13T16:47:16.401Z,100656.44
2022-08-13T16:49:54.183Z,100646.72
2022-08-13T16:52:23.041Z,100647.78
2022-08-13T16:54:51.859Z,100650.78
2022-08-13T16:57:22.969Z,100652.81
2022-08-13T17:00:01.151Z,100648.44
2022-08-13T17:02:55.229Z,100653.88
2022-08-13T17:05:52.958Z,100639.16
2022-08-13T17:08:50.845Z,100646.09
2022-08-13T17:11:24.961Z,100643.72
2022-08-13T17:14:00.427Z,100639.78
2022-08-13T17:16:59.270Z,100643.94
2022-08-13T17:19:56.870Z,100655.16
2022-08-13T17:22:29.913Z,100671.63
2022-08-13T17:25:10.068Z,100662.75
2022-08-13T17:27:51.906Z,100657.28
2022-08-13T17:30:37.925Z,100653.03
2022-08-13T17:33:16.808Z,100648.16
2022-08-13T17:36:04.072Z,100642.06
2022-08-13T17:38:42.663Z,100641.59
2022-08-13T17:41:18.547Z,100635.56
2022-08-13T17:43:58.729Z,100649.31
2022-08-13T17:46:50.058Z,100714.97
2022-08-13T17:49:22.367Z,100759.94
2022-08-13T17:52:01.337Z,100767.00
2022-08-13T17:54:35.580Z,100741.94
2022-08-13T17:57:26.148Z,100730.19
2022-08-13T18:00:17.012Z,100704.50
2022-08-13T18:02:57.887Z,100699.19
2022-08-13T18:05:52.643Z,100687.84
2022-08-13T18:09:45.885Z,100676.56
2022-08-13T18:11:26.113Z,100674.34
2022-08-13T18:14:49.582Z,100676.88
2022-08-13T18:18:14.058Z,100685.59
2022-08-13T18:20:55.020Z,100680.50
2022-08-13T18:23:38.402Z,100679.03
2022-08-13T18:26:32.592Z,100674.34
2022-08-13T18:29:59.723Z,100684.16
2022-08-13T18:32:58.119Z,100688.75
2022-08-13T18:36:24.930Z,100685.09
2022-08-13T18:39:14.589Z,100682.16
2022-08-13T18:42:46.039Z,100688.28
2022-08-13T18:46:16.975Z,100683.69
2022-08-13T18:49:34.390Z,100693.56
2022-08-13T18:52:42.470Z,100697.31
2022-08-13T18:56:00.194Z,100700.00
2022-08-13T18:58:29.175Z,100708.81
2022-08-13T19:01:18.264Z,100708.06
2022-08-13T19:04:02.783Z,100706.66
2022-08-13T19:07:08.058Z,100715.78
2022-08-13T19:10:32.155Z,100711.59
2022-08-13T19:13:14.021Z,100710.66
2022-08-13T19:16:57.939Z,100702.50
2022-08-13T19:20:33.951Z,100697.91
2022-08-13T19:23:39.991Z,100689.78
2022-08-13T19:26:32.020Z,100689.94
2022-08-13T19:29:53.574Z,100689.25
2022-08-13T19:33:11.921Z,100687.69
2022-08-13T19:36:47.896Z,100680.69
2022-08-13T19:40:37.047Z,100682.78
2022-08-13T19:43:06.441Z,100677.56
2022-08-13T19:45:51.214Z,100682.09
2022-08-13T19:52:03.216Z,100687.53
2022-08-13T19:54:40.718Z,100686.78
2022-08-13T19:57:31.749Z,100678.03
2022-08-13T20:00:38.450Z,100685.28
2022-08-13T20:03:55.451Z,100678.97
2022-08-13T20:06:05.849Z,100681.75
2022-08-13T20:08:36.877Z,100679.13
2022-08-13T20:11:23.515Z,100668.50
2022-08-13T20:13:57.865Z,100678.56
2022-08-13T20:16:35.841Z,100683.22
2022-08-13T20:19:58.075Z,100673.63
2022-08-13T20:22:27.692Z,100670.44
2022-08-13T20:25:47.304Z,100667.91
2022-08-13T20:28:08.684Z,100670.94
2022-08-13T20:30:56.328Z,100671.19
2022-08-13T20:34:24.773Z,100667.19
2022-08-13T20:36:59.608Z,100664.78
2022-08-13T20:39:45.620Z,100671.13
2022-08-13T20:42:39.906Z,100662.34
2022-08-13T20:45:22.051Z,100664.16
2022-08-13T20:48:04.042Z,100667.09
2022-08-13T20:50:34.434Z,100671.66
2022-08-13T20:53:14.224Z,100681.78
2022-08-13T20:55:46.475Z,100664.84
2022-08-13T21:00:46.039Z,100669.56
2022-08-13T21:01:16.279Z,100663.44
2022-08-13T21:03:46.489Z,100662.66
2022-08-13T21:06:23.939Z,100661.06
2022-08-13T21:08:56.076Z,100668.31
2022-08-13T21:11:24.843Z,100660.28
2022-08-13T21:14:11.861Z,100666.63
2022-08-13T21:16:42.255Z,100661.16
2022-08-13T21:19:39.816Z,100660.28
2022-08-13T21:22:04.674Z,100665.75
2022-08-13T21:24:36.321Z,100670.84
2022-08-13T21:27:15.019Z,100670.50
2022-08-13T21:30:04.503Z,100666.56
2022-08-13T21:32:37.208Z,100662.75
2022-08-13T21:35:08.657Z,100664.78
2022-08-13T21:37:39.871Z,100661.91
2022-08-13T21:40:10.470Z,100661.91
2022-08-13T21:42:39.992Z,100659.16
2022-08-13T21:45:12.354Z,100657.03
2022-08-13T21:47:47.428Z,100657.47
2022-08-13T21:50:18.334Z,100653.38
2022-08-13T21:52:54.105Z,100580.56
2022-08-13T21:55:24.350Z,100654.91
2022-08-13T21:57:54.045Z,100646.19
2022-08-13T22:00:28.980Z,100626.19
2022-08-13T22:03:06.067Z,100644.28
2022-08-13T22:05:58.177Z,100648.09
2022-08-13T22:08:32.219Z,100642.13
2022-08-13T22:11:00.864Z,100644.16
2022-08-13T22:13:31.442Z,100638.97
2022-08-13T22:16:04.849Z,100642.69
2022-08-13T22:18:39.644Z,100639.13
2022-08-13T22:21:08.895Z,100638.28
2022-08-13T22:23:45.173Z,100633.94
2022-08-13T22:26:15.655Z,100639.47
2022-08-13T22:29:02.792Z,100633.41
2022-08-13T22:31:32.017Z,100638.75
2022-08-13T22:34:04.917Z,100622.69
2022-08-13T22:36:35.018Z,100632.72
2022-08-13T22:39:08.364Z,100603.41
2022-08-13T22:41:41.071Z,100632.94
2022-08-13T22:44:11.728Z,100634.69
2022-08-13T22:46:43.940Z,100629.31
2022-08-13T22:49:14.654Z,100630.19
2022-08-13T22:51:51.573Z,100618.44
2022-08-13T22:54:21.178Z,100626.50
2022-08-13T22:56:50.253Z,100616.53
2022-08-13T22:59:21.625Z,100615.34
2022-08-13T23:01:50.607Z,100612.31
2022-08-13T23:04:22.920Z,100616.66
2022-08-13T23:06:53.362Z,100607.56
2022-08-13T23:09:28.008Z,100608.44
2022-08-13T23:12:00.920Z,100605.88
2022-08-13T23:14:31.136Z,100610.44
2022-08-13T23:17:01.894Z,100601.59
2022-08-13T23:19:33.629Z,100605.94
2022-08-13T23:22:03.800Z,100603.19
2022-08-13T23:24:34.370Z,100605.75
2022-08-13T23:27:03.470Z,100610.09
2022-08-13T23:29:32.721Z,100605.75
2022-08-13T23:32:02.731Z,100605.06
2022-08-13T23:34:34.735Z,100610.34
2022-08-13T23:37:03.997Z,100613.91
2022-08-13T23:39:32.712Z,100607.75
2022-08-13T23:42:02.162Z,100604.00
2022-08-13T23:44:38.328Z,100607.47
2022-08-13T23:47:13.129Z,100602.03
2022-08-13T23:49:43.823Z,100593.91
2022-08-13T23:52:14.185Z,100592.19
2022-08-13T23:54:52.337Z,100598.34
2022-08-13T23:57:27.669Z,100594.59
2022-08-13T23:59:58.116Z,100585.72
